createdAt,value
2023-02-11T00:00:35.183Z,9.50
2023-02-11T00:06:22.724Z,9.66
2023-02-11T00:12:13.047Z,9.66
2023-02-11T00:18:01.458Z,9.71
2023-02-11T00:23:52.137Z,9.43
2023-02-11T00:29:44.746Z,9.36
2023-02-11T00:35:32.930Z,9.33
2023-02-11T00:41:21.026Z,9.58
2023-02-11T00:47:07.761Z,9.51
2023-02-11T00:53:08.552Z,9.45
2023-02-11T00:58:55.444Z,9.35
2023-02-11T01:04:47.567Z,9.48
2023-02-11T01:10:34.333Z,9.59
2023-02-11T01:16:28.237Z,9.54
2023-02-11T01:22:18.296Z,9.52
2023-02-11T01:28:07.645Z,9.84
2023-02-11T01:33:59.195Z,9.91
2023-02-11T01:39:48.940Z,9.93
2023-02-11T01:45:51.899Z,9.68
2023-02-11T01:52:01.702Z,9.63
2023-02-11T01:57:53.738Z,9.77
2023-02-11T02:03:51.831Z,9.79
2023-02-11T02:09:45.774Z,9.82
2023-02-11T02:15:34.902Z,9.66
2023-02-11T02:22:22.611Z,9.72
2023-02-11T02:28:33.710Z,9.86
2023-02-11T02:34:45.232Z,9.75
2023-02-11T02:40:41.294Z,9.45
2023-02-11T02:46:39.812Z,9.58
2023-02-11T02:52:39.973Z,9.75
2023-02-11T02:58:49.675Z,10.00
2023-02-11T03:04:39.026Z,9.88
2023-02-11T03:10:25.926Z,9.71
2023-02-11T03:16:17.549Z,9.70
2023-02-11T03:22:11.167Z,9.49
2023-02-11T03:28:08.975Z,9.76
2023-02-11T03:33:55.821Z,9.80
2023-02-11T03:39:50.913Z,9.67
2023-02-11T03:45:39.100Z,9.51
2023-02-11T03:51:28.378Z,9.58
2023-02-11T03:58:16.954Z,9.60
2023-02-11T04:03:47.863Z,9.70
2023-02-11T04:09:35.462Z,9.78
2023-02-11T04:15:24.614Z,9.92
2023-02-11T04:21:11.496Z,9.98
2023-02-11T04:27:13.578Z,10.04
2023-02-11T04:33:28.866Z,9.87
2023-02-11T04:39:21.275Z,9.79
2023-02-11T04:45:15.616Z,9.86
2023-02-11T04:51:05.009Z,9.68
2023-02-11T04:56:52.027Z,9.54
2023-02-11T05:02:40.391Z,9.53
2023-02-11T05:08:38.759Z,9.77
2023-02-11T05:14:29.317Z,9.83
2023-02-11T05:20:21.065Z,9.81
2023-02-11T05:26:19.702Z,9.82
2023-02-11T05:32:07.709Z,9.87
2023-02-11T05:37:54.577Z,10.04
2023-02-11T05:43:41.406Z,9.95
2023-02-11T05:49:30.847Z,9.92
2023-02-11T05:55:20.482Z,9.70
2023-02-11T06:01:07.542Z,9.79
2023-02-11T06:06:54.439Z,9.96
2023-02-11T06:12:50.887Z,9.95
2023-02-11T06:18:40.469Z,9.84
2023-02-11T06:24:48.079Z,9.89
2023-02-11T06:30:34.308Z,9.89
2023-02-11T06:36:22.780Z,9.93
2023-02-11T06:42:10.326Z,9.98
2023-02-11T06:47:57.306Z,10.05
2023-02-11T06:53:45.778Z,10.01
2023-02-11T06:59:32.810Z,9.93
2023-02-11T07:05:19.863Z,9.79
2023-02-11T07:11:15.094Z,9.79
2023-02-11T07:17:08.428Z,9.71
2023-02-11T07:23:01.178Z,9.75
2023-02-11T07:28:53.515Z,9.76
2023-02-11T07:35:04.600Z,9.84
2023-02-11T07:41:07.636Z,9.85
2023-02-11T07:46:57.407Z,9.73
2023-02-11T07:52:50.562Z,9.88
2023-02-11T07:58:43.650Z,9.82
2023-02-11T08:04:31.133Z,9.73
2023-02-11T08:10:18.105Z,9.77
2023-02-11T08:16:05.956Z,9.83
2023-02-11T08:22:05.957Z,10.15
2023-02-11T08:27:55.721Z,10.16
2023-02-11T08:33:47.490Z,10.32
2023-02-11T08:40:16.248Z,10.46
2023-02-11T08:46:16.831Z,10.48
2023-02-11T08:52:04.261Z,10.44
2023-02-11T08:57:52.104Z,10.49
2023-02-11T09:03:48.437Z,10.44
2023-02-11T09:09:38.212Z,10.44
2023-02-11T09:15:27.762Z,10.75
2023-02-11T09:21:16.856Z,10.73
2023-02-11T09:27:05.926Z,10.74
2023-02-11T09:32:56.815Z,10.80
2023-02-11T09:38:44.582Z,10.96
2023-02-11T09:44:36.821Z,11.03
2023-02-11T09:50:27.401Z,11.20
2023-02-11T09:56:18.176Z,11.42
2023-02-11T10:02:57.378Z,11.63
2023-02-11T10:09:02.808Z,11.54
2023-02-11T10:15:26.650Z,11.40
2023-02-11T10:22:11.521Z,11.75
2023-02-11T10:28:01.554Z,11.74
2023-02-11T10:34:04.537Z,11.67
2023-02-11T10:39:52.759Z,11.84
2023-02-11T10:45:44.713Z,11.87
2023-02-11T10:51:38.138Z,11.76
2023-02-11T10:57:31.573Z,11.80
2023-02-11T11:03:29.518Z,11.89
2023-02-11T11:09:47.019Z,11.94
2023-02-11T11:15:44.800Z,12.11
2023-02-11T11:21:44.926Z,12.28
2023-02-11T11:28:02.749Z,12.21
2023-02-11T11:33:52.922Z,12.20
2023-02-11T11:40:00.175Z,12.26
2023-02-11T11:45:58.567Z,12.18
2023-02-11T11:52:07.764Z,12.27
2023-02-11T11:58:05.990Z,12.26
2023-02-11T12:04:14.337Z,12.52
2023-02-11T12:10:28.219Z,12.49
2023-02-11T12:16:15.004Z,12.33
2023-02-11T12:22:44.771Z,12.47
2023-02-11T12:28:47.851Z,12.68
2023-02-11T12:35:06.688Z,12.74
2023-02-11T12:41:46.847Z,12.75
2023-02-11T12:47:39.996Z,12.64
2023-02-11T12:53:51.462Z,12.55
2023-02-11T13:00:03.898Z,12.28
2023-02-11T13:06:02.471Z,12.40
2023-02-11T13:11:59.119Z,12.50
2023-02-11T13:18:12.214Z,12.60
2023-02-11T13:24:05.818Z,12.50
2023-02-11T13:30:32.704Z,12.57
2023-02-11T13:36:26.883Z,12.50
2023-02-11T13:42:17.670Z,12.29
2023-02-11T13:48:08.419Z,11.95
2023-02-11T13:53:58.045Z,12.36
2023-02-11T14:00:12.956Z,12.19
2023-02-11T14:06:28.799Z,12.27
2023-02-11T14:12:54.155Z,12.17
2023-02-11T14:18:53.184Z,12.26
2023-02-11T14:25:10.916Z,12.18
2023-02-11T14:31:42.157Z,12.24
2023-02-11T14:37:50.754Z,11.86
2023-02-11T14:43:48.054Z,11.82
2023-02-11T14:50:00.174Z,12.12
2023-02-11T14:55:59.195Z,11.99
2023-02-11T15:01:59.780Z,12.12
2023-02-11T15:07:55.265Z,11.91
2023-02-11T15:13:50.731Z,11.42
2023-02-11T15:19:49.272Z,11.66
2023-02-11T15:25:56.485Z,11.72
2023-02-11T15:31:50.808Z,11.55
2023-02-11T15:37:43.831Z,11.78
2023-02-11T15:43:46.495Z,11.92
2023-02-11T15:49:54.192Z,11.92
2023-02-11T15:55:57.440Z,11.78
2023-02-11T16:02:03.600Z,11.74
2023-02-11T16:14:06.626Z,11.87
2023-02-11T16:20:16.655Z,11.66
2023-02-11T16:26:32.213Z,11.62
2023-02-11T16:38:34.878Z,11.64
2023-02-11T16:44:22.107Z,11.64
2023-02-11T16:50:21.661Z,11.64
2023-02-11T16:56:18.389Z,11.60
2023-02-11T17:02:19.423Z,11.62
2023-02-11T17:08:14.086Z,11.57
2023-02-11T17:14:06.524Z,11.57
2023-02-11T17:19:59.013Z,11.67
2023-02-11T17:25:50.381Z,11.52
2023-02-11T17:31:42.674Z,11.54
2023-02-11T17:37:30.552Z,11.52
2023-02-11T17:43:17.492Z,11.23
2023-02-11T17:49:04.725Z,11.14
2023-02-11T17:54:57.854Z,11.30
2023-02-11T18:00:47.454Z,11.31
2023-02-11T18:06:35.448Z,11.44
2023-02-11T18:12:37.378Z,11.53
2023-02-11T18:18:28.574Z,11.33
2023-02-11T18:24:23.644Z,11.31
2023-02-11T18:30:49.552Z,11.19
2023-02-11T18:36:39.318Z,11.16
2023-02-11T18:49:50.926Z,11.32
2023-02-11T18:55:42.537Z,11.30
2023-02-11T19:01:49.045Z,11.15
2023-02-11T19:15:11.011Z,11.11
2023-02-11T19:21:56.460Z,11.13
2023-02-11T19:42:15.623Z,11.19
2023-02-11T19:55:28.745Z,11.18
2023-02-11T20:01:37.831Z,11.11
2023-02-11T20:07:31.233Z,11.04
2023-02-11T20:13:44.034Z,10.89
2023-02-11T20:19:43.436Z,10.88
2023-02-11T20:25:39.563Z,10.92
2023-02-11T20:39:20.355Z,11.05
2023-02-11T20:45:52.626Z,11.07
2023-02-11T20:52:08.837Z,11.06
2023-02-11T20:57:58.608Z,11.10
2023-02-11T21:04:49.239Z,11.06
2023-02-11T21:26:27.332Z,11.00
2023-02-11T21:32:35.690Z,10.85
2023-02-11T21:44:47.080Z,10.85
2023-02-11T21:50:37.619Z,11.08
2023-02-11T21:56:43.091Z,10.96
2023-02-11T22:02:33.180Z,10.81
2023-02-11T22:08:24.674Z,10.83
2023-02-11T22:14:11.635Z,10.95
2023-02-11T22:19:59.029Z,10.64
2023-02-11T22:25:45.960Z,10.31
2023-02-11T22:31:34.789Z,9.98
2023-02-11T22:37:24.581Z,10.48
2023-02-11T22:43:11.539Z,10.58
2023-02-11T22:48:58.359Z,10.62
2023-02-11T22:54:45.422Z,10.68
2023-02-11T23:00:38.010Z,10.83
2023-02-11T23:06:24.623Z,10.77
2023-02-11T23:12:11.322Z,10.87
2023-02-11T23:17:58.591Z,10.84
2023-02-11T23:23:45.469Z,10.81
2023-02-11T23:29:34.975Z,10.71
2023-02-11T23:36:07.933Z,10.70
2023-02-11T23:42:23.306Z,10.68
2023-02-11T23:48:18.844Z,10.70
2023-02-11T23:54:05.812Z,10.72
2023-02-11T23:59:52.507Z,10.61
